Time;durP1;ratioP1;P1;durP2;ratioP2;P2;SDS_P1;SDS_P2;PMS_P1;PMS_P2;Temp;Humidity;BMP_temperature;BMP_pressure;BME280_temperature;BME280_humidity;BME280_pressure;Samples;Min_cycle;Max_cycle;Signal;HPM_P1;HPM_P2
2022/05/25 00:01:05;;;;;;;;;;;;;;;21.20;50.88;100937.09;7282337;19;153933;-54
2022/05/25 00:03:33;;;;;;;;;;;;;;;21.22;50.51;100945.19;7288570;19;152049;-53
2022/05/25 00:06:02;;;;;;;;;;;;;;;21.18;50.84;100950.59;7285858;19;152950;-54
2022/05/25 00:08:36;;;;;;;;;;;;;;;21.18;50.93;100956.22;7285124;19;153985;-53
2022/05/25 00:11:03;;;;;;;;;;;;;;;21.20;50.83;100950.28;7283609;19;151725;-54
2022/05/25 00:13:30;;;;;;;;;;;;;;;21.16;50.64;100955.72;7286620;19;153369;-54
2022/05/25 00:15:57;;;;;;;;;;;;;;;21.14;50.38;100962.78;7285974;19;154409;-54
2022/05/25 00:18:24;;;;;;;;;;;;;;;21.20;50.72;100962.38;7294378;19;151843;-54
2022/05/25 00:20:51;;;;;;;;;;;;;;;21.25;50.82;100967.06;7284568;19;153413;-53
2022/05/25 00:23:18;;;;;;;;;;;;;;;21.23;50.46;100969.34;7287616;19;151772;-54
2022/05/25 00:25:45;;;;;;;;;;;;;;;21.15;50.58;100970.91;7287041;19;153313;-54
2022/05/25 00:28:13;;;;;;;;;;;;;;;21.11;50.86;100975.44;7285904;19;154104;-54
2022/05/25 00:30:41;;;;;;;;;;;;;;;21.11;51.02;100978.25;7284691;19;152105;-53
2022/05/25 00:33:09;;;;;;;;;;;;;;;21.10;50.82;100973.78;7288437;19;152860;-54
2022/05/25 00:35:36;;;;;;;;;;;;;;;21.09;51.02;100982.50;7286603;19;153644;-53
2022/05/25 00:38:03;;;;;;;;;;;;;;;21.10;51.09;100972.94;7285371;19;151863;-54
2022/05/25 00:40:36;;;;;;;;;;;;;;;21.08;51.31;100980.84;7293500;19;153737;-53
2022/05/25 00:43:04;;;;;;;;;;;;;;;21.08;51.13;100976.06;7284729;19;151973;-54
2022/05/25 00:45:33;;;;;;;;;;;;;;;21.05;51.42;100973.88;7285099;19;152857;-54
2022/05/25 00:48:01;;;;;;;;;;;;;;;21.04;51.72;100979.78;7285958;19;153152;-54
2022/05/25 00:51:11;;;;;;;;;;;;;;;21.04;51.66;100980.63;7286505;19;151699;-54
2022/05/25 00:53:16;;;;;;;;;;;;;;;21.07;51.68;100985.66;7283947;19;152604;-53
2022/05/25 00:55:44;;;;;;;;;;;;;;;21.04;51.60;100985.41;7285372;19;153998;-53
2022/05/25 00:58:11;;;;;;;;;;;;;;;21.08;51.61;100992.06;7286402;19;151885;-54
2022/05/25 01:00:38;;;;;;;;;;;;;;;21.10;51.58;100990.63;7283576;19;153648;-54
2022/05/25 01:03:08;;;;;;;;;;;;;;;21.10;51.52;100985.00;7290627;19;152833;-54
2022/05/25 01:05:38;;;;;;;;;;;;;;;21.10;51.59;100992.59;7285276;19;153216;-54
2022/05/25 01:08:11;;;;;;;;;;;;;;;21.05;51.50;100995.50;7282620;19;153209;-54
2022/05/25 01:10:40;;;;;;;;;;;;;;;21.06;52.21;101000.00;7286980;19;151524;-54
2022/05/25 01:13:12;;;;;;;;;;;;;;;21.03;51.69;100995.00;7285937;19;153155;-54
2022/05/25 01:15:39;;;;;;;;;;;;;;;21.09;51.96;100990.94;7285716;19;153398;-55
2022/05/25 01:18:12;;;;;;;;;;;;;;;21.03;51.80;100989.41;7285866;19;151666;-54
2022/05/25 01:20:43;;;;;;;;;;;;;;;21.01;51.66;100989.69;7286512;19;153283;-54
2022/05/25 01:23:19;;;;;;;;;;;;;;;20.99;52.20;100994.78;7278768;19;154206;-54
2022/05/25 01:25:47;;;;;;;;;;;;;;;20.98;51.82;100993.13;7293614;19;151616;-55
2022/05/25 01:28:17;;;;;;;;;;;;;;;20.99;52.03;100994.78;7285405;19;153691;-54
2022/05/25 01:30:45;;;;;;;;;;;;;;;20.97;51.83;100999.88;7286394;19;151981;-53
2022/05/25 01:33:15;;;;;;;;;;;;;;;20.96;52.10;100995.41;7285148;19;152647;-54
2022/05/25 01:35:45;;;;;;;;;;;;;;;20.96;51.73;100991.75;7284172;19;154350;-53
2022/05/25 01:38:15;;;;;;;;;;;;;;;20.94;52.17;100997.69;7283989;19;152230;-54
2022/05/25 01:40:45;;;;;;;;;;;;;;;20.97;51.46;100996.25;7283281;19;152847;-54
2022/05/25 01:43:15;;;;;;;;;;;;;;;21.01;51.43;100998.13;7282419;19;154164;-54
2022/05/25 01:45:45;;;;;;;;;;;;;;;20.96;52.07;101008.63;7284487;19;151715;-53
2022/05/25 01:48:13;;;;;;;;;;;;;;;20.94;51.66;100997.69;7290112;19;153255;-54
2022/05/25 01:50:45;;;;;;;;;;;;;;;20.93;51.96;101006.44;7284083;19;151761;-54
2022/05/25 01:53:13;;;;;;;;;;;;;;;20.91;51.61;101001.13;7284578;19;152727;-54
2022/05/25 01:55:43;;;;;;;;;;;;;;;20.92;51.99;101005.59;7281535;19;153986;-54
2022/05/25 01:58:13;;;;;;;;;;;;;;;20.90;52.04;101007.88;7284604;19;151814;-54
2022/05/25 02:00:42;;;;;;;;;;;;;;;20.90;52.34;101007.88;7283084;19;152551;-54
2022/05/25 02:05:46;;;;;;;;;;;;;;;20.86;52.34;100999.22;7283016;19;151950;-54
2022/05/25 02:08:23;;;;;;;;;;;;;;;20.86;51.99;100996.44;7283301;19;153071;-54
2022/05/25 02:11:00;;;;;;;;;;;;;;;20.86;52.50;100999.22;7291008;19;153790;-54
2022/05/25 02:13:30;;;;;;;;;;;;;;;20.84;52.70;101004.34;7282213;19;153110;-54
2022/05/25 02:16:00;;;;;;;;;;;;;;;20.85;52.50;101005.16;7282731;19;153978;-54
2022/05/25 02:18:30;;;;;;;;;;;;;;;20.83;52.37;101002.69;7282742;19;151818;-54
2022/05/25 02:21:00;;;;;;;;;;;;;;;20.84;52.19;101001.53;7283579;19;152587;-53
2022/05/25 02:23:28;;;;;;;;;;;;;;;20.81;52.18;101007.75;7280477;19;153677;-54
2022/05/25 02:25:58;;;;;;;;;;;;;;;20.86;52.28;101004.84;7280123;19;151862;-54
2022/05/25 02:28:27;;;;;;;;;;;;;;;20.87;51.88;101005.69;7284284;19;153079;-54
2022/05/25 02:30:56;;;;;;;;;;;;;;;20.81;52.22;101004.94;7290228;19;152357;-54
2022/05/25 02:33:27;;;;;;;;;;;;;;;20.85;52.46;101000.38;7281390;19;152687;-54
2022/05/25 02:35:57;;;;;;;;;;;;;;;20.82;52.24;100994.53;7285223;19;153312;-54
2022/05/25 02:38:24;;;;;;;;;;;;;;;20.80;52.58;100986.44;7289105;19;151632;-54
2022/05/25 02:41:02;;;;;;;;;;;;;;;20.79;52.85;100998.81;7289794;19;153631;-54
2022/05/25 02:43:29;;;;;;;;;;;;;;;20.78;52.87;100996.31;7284519;19;153986;-53
2022/05/25 02:45:57;;;;;;;;;;;;;;;20.77;52.63;100992.66;7288299;19;153275;-54
2022/05/25 02:48:23;;;;;;;;;;;;;;;20.77;52.72;100983.41;7271032;19;152901;-54
2022/05/25 02:50:50;;;;;;;;;;;;;;;20.80;52.51;100983.63;7282279;19;153789;-55
2022/05/25 02:53:20;;;;;;;;;;;;;;;20.83;52.49;100990.59;7299480;19;152121;-54
2022/05/25 02:55:46;;;;;;;;;;;;;;;20.81;52.69;100993.72;7284403;19;153409;-55
2022/05/25 02:58:13;;;;;;;;;;;;;;;20.79;52.26;100996.00;7291135;19;151773;-54
2022/05/25 03:00:40;;;;;;;;;;;;;;;20.79;52.53;100996.00;7289185;19;152560;-53
2022/05/25 03:03:07;;;;;;;;;;;;;;;20.80;52.47;100994.03;7288632;19;153278;-54
2022/05/25 03:05:34;;;;;;;;;;;;;;;20.79;52.77;100996.00;7290560;19;151670;-53
2022/05/25 03:08:01;;;;;;;;;;;;;;;20.74;52.36;100993.28;7290616;19;153306;-54
2022/05/25 03:10:28;;;;;;;;;;;;;;;20.72;52.60;100987.13;7289121;19;153625;-55
2022/05/25 03:12:55;;;;;;;;;;;;;;;20.74;52.57;100984.88;7290915;19;151761;-54
2022/05/25 03:15:22;;;;;;;;;;;;;;;20.72;52.53;100987.13;7297484;19;153055;-54
2022/05/25 03:17:49;;;;;;;;;;;;;;;20.70;52.55;100985.81;7289201;19;151998;-54
2022/05/25 03:20:15;;;;;;;;;;;;;;;20.71;52.68;100981.84;7290240;19;153467;-53
2022/05/25 03:22:47;;;;;;;;;;;;;;;20.69;52.47;100978.50;7288400;19;153275;-54
2022/05/25 03:25:14;;;;;;;;;;;;;;;20.71;52.60;100974.28;7289209;19;152004;-54
2022/05/25 03:27:41;;;;;;;;;;;;;;;20.69;52.46;100976.53;7288998;19;152411;-54
2022/05/25 03:30:08;;;;;;;;;;;;;;;20.67;52.73;100976.00;7289353;19;154047;-53
2022/05/25 03:32:35;;;;;;;;;;;;;;;20.67;52.43;100981.63;7290065;19;152141;-54
2022/05/25 03:35:02;;;;;;;;;;;;;;;20.65;52.51;100981.09;7290796;19;153183;-53
2022/05/25 03:37:29;;;;;;;;;;;;;;;20.67;52.74;100986.44;7295847;19;153901;-54
2022/05/25 03:39:56;;;;;;;;;;;;;;;20.72;52.15;100995.56;7289343;19;152952;-54
2022/05/25 03:42:23;;;;;;;;;;;;;;;20.66;52.56;100991.22;7286844;19;153462;-53
2022/05/25 03:44:50;;;;;;;;;;;;;;;20.66;52.76;100991.22;7290961;19;151480;-53
2022/05/25 03:47:17;;;;;;;;;;;;;;;20.61;52.43;100996.91;7289701;19;153178;-53
2022/05/25 03:49:44;;;;;;;;;;;;;;;20.60;52.82;100998.03;7289085;19;153708;-53
2022/05/25 03:52:12;;;;;;;;;;;;;;;20.60;52.53;100998.03;7286724;19;151943;-54
2022/05/25 03:54:38;;;;;;;;;;;;;;;20.65;52.46;101003.56;7288590;19;152640;-54
2022/05/25 03:57:06;;;;;;;;;;;;;;;20.59;52.70;101003.94;7287127;19;153228;-54
2022/05/25 03:59:33;;;;;;;;;;;;;;;20.59;52.68;100998.34;7294743;19;152142;-53
2022/05/25 04:02:00;;;;;;;;;;;;;;;20.57;53.12;101004.28;7288838;19;153406;-53
2022/05/25 04:04:27;;;;;;;;;;;;;;;20.60;52.84;101009.28;7287056;19;151478;-53
2022/05/25 04:06:54;;;;;;;;;;;;;;;20.63;52.71;101003.03;7288230;19;153136;-53
2022/05/25 04:09:21;;;;;;;;;;;;;;;20.68;52.80;101000.13;7285899;19;154098;-54
2022/05/25 04:11:48;;;;;;;;;;;;;;;20.62;52.48;101009.81;7289175;19;151775;-54
2022/05/25 04:14:15;;;;;;;;;;;;;;;20.63;52.85;101013.41;7288825;19;153311;-55
2022/05/25 04:16:43;;;;;;;;;;;;;;;20.58;53.29;101013.53;7287958;19;153278;-54
2022/05/25 04:19:10;;;;;;;;;;;;;;;20.57;52.85;101014.66;7289752;19;152119;-54
2022/05/25 04:21:37;;;;;;;;;;;;;;;20.54;53.05;101004.88;7295717;19;153089;-54
2022/05/25 04:24:05;;;;;;;;;;;;;;;20.69;52.94;101007.44;7286658;19;152152;-54
2022/05/25 04:26:32;;;;;;;;;;;;;;;20.58;52.89;101005.13;7287845;19;152575;-54
2022/05/25 04:29:01;;;;;;;;;;;;;;;20.66;52.59;101002.44;7285276;19;153925;-54
2022/05/25 04:31:27;;;;;;;;;;;;;;;20.65;52.62;101006.38;7288020;19;152222;-53
2022/05/25 04:33:55;;;;;;;;;;;;;;;20.63;52.75;101014.25;7288953;19;152918;-53
2022/05/25 04:36:22;;;;;;;;;;;;;;;20.58;52.63;101014.34;7286781;19;153977;-54
2022/05/25 04:38:49;;;;;;;;;;;;;;;20.63;52.65;101016.22;7288140;19;151581;-54
2022/05/25 04:41:16;;;;;;;;;;;;;;;20.57;52.37;101023.09;7295087;19;153077;-54
2022/05/25 04:43:43;;;;;;;;;;;;;;;20.54;52.90;101013.28;7286552;19;151996;-54
2022/05/25 04:46:12;;;;;;;;;;;;;;;20.51;52.64;101010.28;7289373;19;153348;-53
2022/05/25 04:48:39;;;;;;;;;;;;;;;20.53;52.75;101019.25;7287741;19;153461;-53
2022/05/25 04:51:06;;;;;;;;;;;;;;;20.51;52.78;101011.13;7289759;19;151838;-54
2022/05/25 04:53:37;;;;;;;;;;;;;;;20.48;52.66;101010.91;7286363;19;152628;-54
2022/05/25 04:58:38;;;;;;;;;;;;;;;20.52;52.76;101034.41;7283970;19;152265;-53
2022/05/25 05:01:05;;;;;;;;;;;;;;;20.64;52.34;101029.13;7284162;19;152620;-53
2022/05/25 05:03:32;;;;;;;;;;;;;;;20.57;52.22;101015.50;7292575;19;153400;-53
2022/05/25 05:06:00;;;;;;;;;;;;;;;20.57;52.04;101018.31;7288200;19;152556;-54
2022/05/25 05:08:27;;;;;;;;;;;;;;;20.56;52.29;101019.44;7284786;19;153355;-54
2022/05/25 05:10:55;;;;;;;;;;;;;;;20.51;51.95;101022.34;7286846;19;151650;-53
2022/05/25 05:13:22;;;;;;;;;;;;;;;20.47;52.55;101031.69;7286422;19;153721;-54
2022/05/25 05:15:51;;;;;;;;;;;;;;;20.50;52.34;101045.94;7286732;19;153608;-53
2022/05/25 05:18:20;;;;;;;;;;;;;;;20.57;52.39;101037.97;7284991;19;151954;-54
2022/05/25 05:20:47;;;;;;;;;;;;;;;20.56;52.44;101043.88;7286160;19;153472;-54
2022/05/25 05:23:14;;;;;;;;;;;;;;;20.52;52.47;101043.66;7284323;19;153420;-54
2022/05/25 05:25:41;;;;;;;;;;;;;;;20.58;51.82;101050.84;7293530;19;151381;-54
2022/05/25 05:28:10;;;;;;;;;;;;;;;20.60;52.08;101053.34;7283277;19;153256;-54
2022/05/25 05:30:39;;;;;;;;;;;;;;;20.58;51.88;101050.03;7287473;19;151758;-53
2022/05/25 05:33:07;;;;;;;;;;;;;;;20.51;52.38;101042.00;7286994;19;153334;-53
2022/05/25 05:35:34;;;;;;;;;;;;;;;20.51;52.02;101038.34;7286731;19;154484;-53
2022/05/25 05:38:01;;;;;;;;;;;;;;;20.53;52.47;101042.53;7285670;19;151546;-54
2022/05/25 05:40:29;;;;;;;;;;;;;;;20.55;51.86;101040.22;7287885;19;152763;-53
2022/05/25 05:43:00;;;;;;;;;;;;;;;20.53;52.04;101041.69;7284241;19;154103;-54
2022/05/25 05:45:29;;;;;;;;;;;;;;;20.50;52.34;101037.50;7287466;19;152196;-54
2022/05/25 05:47:59;;;;;;;;;;;;;;;20.53;51.98;101031.31;7289497;19;153243;-54
2022/05/25 05:50:26;;;;;;;;;;;;;;;20.55;52.65;101026.19;7287241;19;151570;-54
2022/05/25 05:52:53;;;;;;;;;;;;;;;20.55;52.56;101031.81;7285883;19;153106;-53
2022/05/25 05:55:21;;;;;;;;;;;;;;;20.58;52.63;101038.81;7284564;19;154557;-55
2022/05/25 05:57:48;;;;;;;;;;;;;;;20.63;52.71;101053.56;7284190;19;152094;-54
2022/05/25 06:00:16;;;;;;;;;;;;;;;20.74;52.40;101048.63;7284537;19;152576;-54
2022/05/25 06:02:43;;;;;;;;;;;;;;;20.76;52.44;101024.69;7281819;19;154015;-54
2022/05/25 06:05:11;;;;;;;;;;;;;;;20.80;52.87;101008.88;7282264;19;151856;-54
2022/05/25 06:07:38;;;;;;;;;;;;;;;20.86;52.77;101002.03;7285658;19;152985;-54
2022/05/25 06:10:05;;;;;;;;;;;;;;;20.93;52.92;101004.47;7294870;19;154392;-54
2022/05/25 06:12:33;;;;;;;;;;;;;;;21.01;53.01;101000.09;7292248;19;152746;-54
2022/05/25 06:19:25;;;;;;;;;;;;;;;21.09;53.12;101004.97;7290093;19;153270;-53
2022/05/25 06:20:18;;;;;;;;;;;;;;;21.25;52.26;101020.44;7292684;19;153030;-54
2022/05/25 06:22:45;;;;;;;;;;;;;;;21.30;52.27;101015.53;7290126;19;153748;-54
2022/05/25 06:25:11;;;;;;;;;;;;;;;21.36;51.33;101021.88;7290612;19;151592;-54
2022/05/25 06:27:44;;;;;;;;;;;;;;;21.42;51.39;101031.91;7291816;19;152964;-53
2022/05/25 06:30:11;;;;;;;;;;;;;;;21.35;47.02;101039.09;7289033;19;153453;-53
2022/05/25 06:32:38;;;;;;;;;;;;;;;21.14;46.74;101033.00;7299466;19;152724;-54
2022/05/25 06:35:05;;;;;;;;;;;;;;;21.18;46.17;101034.91;7288665;19;154053;-54
2022/05/25 06:37:32;;;;;;;;;;;;;;;21.32;46.30;101034.06;7292206;19;151752;-53
2022/05/25 06:40:00;;;;;;;;;;;;;;;21.40;46.17;101033.34;7291350;19;153887;-54
2022/05/25 06:42:27;;;;;;;;;;;;;;;21.44;46.65;101040.03;7289995;19;153912;-54
2022/05/25 06:44:54;;;;;;;;;;;;;;;21.48;46.66;101047.53;7290244;19;151767;-54
2022/05/25 06:47:21;;;;;;;;;;;;;;;21.49;46.20;101051.97;7289691;19;153643;-53
2022/05/25 06:49:51;;;;;;;;;;;;;;;21.55;46.09;101049.91;7289057;19;153386;-54
2022/05/25 06:52:19;;;;;;;;;;;;;;;21.56;46.15;101058.03;7297603;19;152115;-54
2022/05/25 06:54:46;;;;;;;;;;;;;;;21.60;46.43;101052.59;7288512;19;154817;-54
2022/05/25 06:57:13;;;;;;;;;;;;;;;21.62;45.84;101061.56;7289399;19;152277;-53
2022/05/25 06:59:45;;;;;;;;;;;;;;;21.65;46.32;101066.56;7287648;19;153878;-54
2022/05/25 07:02:12;;;;;;;;;;;;;;;21.67;45.95;101061.44;7288004;19;154348;-54
2022/05/25 07:04:40;;;;;;;;;;;;;;;21.67;45.99;101065.09;7288948;19;152032;-53
2022/05/25 07:07:07;;;;;;;;;;;;;;;21.68;45.96;101055.50;7291119;19;151829;-53
2022/05/25 07:09:36;;;;;;;;;;;;;;;21.68;46.06;101049.06;7290031;19;153206;-54
2022/05/25 07:12:03;;;;;;;;;;;;;;;21.72;45.99;101056.53;7289279;19;152136;-54
2022/05/25 07:14:30;;;;;;;;;;;;;;;21.85;45.47;101051.25;7297375;19;152650;-54
2022/05/25 07:17:01;;;;;;;;;;;;;;;21.77;46.38;101054.78;7290651;19;153043;-54
2022/05/25 07:19:28;;;;;;;;;;;;;;;21.80;45.75;101051.34;7288637;19;153276;-54
2022/05/25 07:21:55;;;;;;;;;;;;;;;21.76;45.97;101053.94;7288060;19;154024;-53
2022/05/25 07:24:22;;;;;;;;;;;;;;;21.73;45.83;101052.59;7288626;19;151680;-54
2022/05/25 07:26:49;;;;;;;;;;;;;;;21.71;45.85;101054.06;7290521;19;153303;-53
2022/05/25 07:29:17;;;;;;;;;;;;;;;21.69;45.84;101050.72;7288680;19;153975;-54
2022/05/25 07:31:48;;;;;;;;;;;;;;;21.68;45.33;101058.31;7290538;19;151960;-54
2022/05/25 07:34:19;;;;;;;;;;;;;;;21.66;45.48;101054.19;7287382;19;153181;-53
2022/05/25 07:36:50;;;;;;;;;;;;;;;21.66;45.48;101065.44;7294918;19;154140;-53
2022/05/25 07:39:18;;;;;;;;;;;;;;;21.65;45.54;101064.59;7287435;19;152709;-54
2022/05/25 07:41:48;;;;;;;;;;;;;;;21.64;45.55;101056.47;7287721;19;153786;-54
2022/05/25 07:44:20;;;;;;;;;;;;;;;21.63;45.22;101057.59;7288226;19;151805;-53
2022/05/25 07:46:49;;;;;;;;;;;;;;;21.63;45.49;101063.22;7290665;19;152843;-54
2022/05/25 07:49:16;;;;;;;;;;;;;;;21.58;45.36;101050.09;7287798;19;154323;-53
2022/05/25 07:51:43;;;;;;;;;;;;;;;21.59;45.66;101060.19;7289790;19;152160;-54
2022/05/25 07:54:11;;;;;;;;;;;;;;;21.58;45.38;101052.06;7288790;19;152783;-54
2022/05/25 07:56:38;;;;;;;;;;;;;;;21.53;45.48;101047.38;7285806;19;154049;-53
2022/05/25 07:59:07;;;;;;;;;;;;;;;21.54;45.28;101053.84;7295214;19;151497;-54
2022/05/25 08:06:38;;;;;;;;;;;;;;;21.49;45.60;101057.59;7289969;19;152770;-53
2022/05/25 08:09:05;;;;;;;;;;;;;;;21.48;45.69;101039.09;7287126;19;154233;-54
2022/05/25 08:11:34;;;;;;;;;;;;;;;21.47;45.56;101045.84;7289955;19;151556;-54
2022/05/25 08:14:02;;;;;;;;;;;;;;;21.46;45.08;101048.97;7287300;19;152580;-54
2022/05/25 08:16:29;;;;;;;;;;;;;;;21.43;45.36;101046.78;7288298;19;154039;-53
2022/05/25 08:18:56;;;;;;;;;;;;;;;21.42;45.32;101054.38;7287810;19;151691;-53
2022/05/25 08:21:23;;;;;;;;;;;;;;;21.43;45.55;101070.09;7296095;19;153850;-53
2022/05/25 08:24:10;;;;;;;;;;;;;;;21.41;45.52;101052.72;7287501;19;152116;-53
2022/05/25 08:26:38;;;;;;;;;;;;;;;21.39;45.57;101049.41;7289113;19;153162;-53
2022/05/25 08:29:04;;;;;;;;;;;;;;;21.37;45.47;101043.25;7287404;19;153476;-54
2022/05/25 08:31:32;;;;;;;;;;;;;;;21.34;45.88;101046.69;7287595;19;151820;-53
2022/05/25 08:33:59;;;;;;;;;;;;;;;21.35;45.63;101041.91;7285298;19;153385;-54
2022/05/25 08:36:26;;;;;;;;;;;;;;;21.37;45.46;101048.03;7287949;19;153839;-54
2022/05/25 08:38:55;;;;;;;;;;;;;;;21.33;45.75;101052.59;7285662;19;151935;-53
2022/05/25 08:41:24;;;;;;;;;;;;;;;21.31;45.42;101047.28;7288684;19;152515;-53
2022/05/25 08:43:54;;;;;;;;;;;;;;;21.28;45.45;101040.31;7293148;19;151525;-55
2022/05/25 08:46:23;;;;;;;;;;;;;;;21.28;45.31;101048.75;7285185;19;152623;-54
2022/05/25 08:48:51;;;;;;;;;;;;;;;21.27;45.23;101041.47;7286999;19;153829;-53
2022/05/25 08:51:33;;;;;;;;;;;;;;;21.26;45.17;101039.78;7286634;19;151931;-53
2022/05/25 08:54:00;;;;;;;;;;;;;;;21.26;45.00;101038.94;7288739;19;152600;-53
2022/05/25 08:56:33;;;;;;;;;;;;;;;21.24;45.33;101052.50;7286444;19;154080;-54
2022/05/25 08:59:10;;;;;;;;;;;;;;;21.23;45.14;101039.59;7287978;19;152087;-54
2022/05/25 09:01:41;;;;;;;;;;;;;;;21.22;45.55;101038.75;7283279;19;152550;-54
2022/05/25 09:04:12;;;;;;;;;;;;;;;21.20;45.25;101035.44;7293310;19;153291;-54
2022/05/25 09:06:43;;;;;;;;;;;;;;;21.19;45.63;101032.91;7286138;19;152607;-53
2022/05/25 09:09:13;;;;;;;;;;;;;;;21.21;45.25;101042.69;7284068;19;153656;-54
2022/05/25 09:11:45;;;;;;;;;;;;;;;21.16;45.29;101034.38;7286129;19;151830;-53
2022/05/25 09:14:15;;;;;;;;;;;;;;;21.17;45.68;101046.44;7285985;19;152809;-53
2022/05/25 09:16:44;;;;;;;;;;;;;;;21.20;45.19;101045.84;7285417;19;153478;-54
2022/05/25 09:19:15;;;;;;;;;;;;;;;21.15;45.38;101031.88;7287256;19;151749;-53
2022/05/25 09:21:43;;;;;;;;;;;;;;;21.14;45.44;101045.09;7285257;19;153301;-53
2022/05/25 09:24:13;;;;;;;;;;;;;;;21.12;45.36;101052.16;7283044;19;153267;-54
2022/05/25 09:26:42;;;;;;;;;;;;;;;21.09;45.78;101035.88;7291499;19;151955;-54
2022/05/25 09:29:10;;;;;;;;;;;;;;;21.12;45.48;101032.47;7281952;19;154180;-53
2022/05/25 09:31:41;;;;;;;;;;;;;;;21.11;45.37;101022.38;7285529;19;152036;-54
2022/05/25 09:34:11;;;;;;;;;;;;;;;21.11;45.43;101016.75;7285239;19;153453;-53
2022/05/25 09:36:41;;;;;;;;;;;;;;;21.10;45.62;101027.16;7284062;19;153805;-53
2022/05/25 09:39:11;;;;;;;;;;;;;;;21.08;45.52;101022.97;7284681;19;151829;-54
2022/05/25 09:41:40;;;;;;;;;;;;;;;21.06;46.12;101028.09;7258415;19;156934;-54
2022/05/25 09:44:10;;;;;;;;;;;;;;;21.06;46.08;101030.91;7269083;19;153449;-54
2022/05/25 09:46:41;;;;;;;;;;;;;;;21.08;45.74;101037.03;7279686;19;151979;-53
2022/05/25 09:49:11;;;;;;;;;;;;;;;21.07;45.87;101035.38;7289305;19;153256;-54
2022/05/25 09:51:42;;;;;;;;;;;;;;;21.02;45.73;101036.31;7284540;19;151778;-53
2022/05/25 09:54:12;;;;;;;;;;;;;;;21.02;45.81;101030.69;7284159;19;153293;-54
2022/05/25 09:56:42;;;;;;;;;;;;;;;21.03;45.87;101040.75;7283499;19;153625;-53
2022/05/25 09:59:13;;;;;;;;;;;;;;;21.04;45.91;101042.44;7284783;19;151543;-54
2022/05/25 10:01:43;;;;;;;;;;;;;;;20.97;45.94;101036.41;7281504;19;153527;-54
2022/05/25 10:04:13;;;;;;;;;;;;;;;20.91;46.56;101043.25;7280334;19;153932;-54
2022/05/25 10:06:43;;;;;;;;;;;;;;;20.94;46.43;101056.66;7281769;19;152273;-53
2022/05/25 10:09:15;;;;;;;;;;;;;;;20.90;46.39;101047.19;7283328;19;152991;-54
2022/05/25 10:11:46;;;;;;;;;;;;;;;20.85;46.79;101055.69;7288624;19;153765;-54
2022/05/25 10:14:16;;;;;;;;;;;;;;;20.84;46.95;101054.91;7283033;19;153097;-54
2022/05/25 10:16:45;;;;;;;;;;;;;;;20.85;47.14;101047.28;7281315;19;153334;-53
2022/05/25 10:19:13;;;;;;;;;;;;;;;20.83;46.77;101047.59;7281082;19;151925;-54
2022/05/25 10:21:47;;;;;;;;;;;;;;;20.82;46.70;101059.97;7283775;19;152920;-53
2022/05/25 10:24:16;;;;;;;;;;;;;;;20.81;46.82;101055.50;7277983;19;152004;-53
2022/05/25 10:26:46;;;;;;;;;;;;;;;20.86;46.62;101049.78;7281513;19;152845;-53
2022/05/25 10:36:45;;;;;;;;;;;;;;;20.86;46.94;101038.56;7283097;19;153214;-54
2022/05/25 10:37:23;;;;;;;;;;;;;;;20.92;46.85;101039.31;7282031;19;153883;-53
2022/05/25 10:39:53;;;;;;;;;;;;;;;20.92;47.23;101032.84;7283409;19;151830;-55
2022/05/25 10:42:22;;;;;;;;;;;;;;;20.90;47.87;101040.75;7282652;19;153174;-55
2022/05/25 10:44:52;;;;;;;;;;;;;;;20.88;48.72;101041.06;7276879;19;154657;-53
2022/05/25 10:47:29;;;;;;;;;;;;;;;20.85;49.21;101028.47;7282539;19;151938;-53
2022/05/25 10:49:56;;;;;;;;;;;;;;;20.82;49.78;101037.50;7282505;19;152842;-53
2022/05/25 10:52:26;;;;;;;;;;;;;;;20.78;50.67;101030.84;7279400;19;154421;-54
2022/05/25 10:54:55;;;;;;;;;;;;;;;20.78;51.37;101038.44;7290040;19;152031;-54
2022/05/25 10:57:24;;;;;;;;;;;;;;;20.79;50.24;101026.06;7286376;19;153352;-54
2022/05/25 10:59:54;;;;;;;;;;;;;;;20.78;50.68;101028.03;7279433;19;152323;-53
2022/05/25 11:02:21;;;;;;;;;;;;;;;20.97;50.39;101021.53;7279209;19;152127;-54
2022/05/25 11:04:52;;;;;;;;;;;;;;;20.82;50.21;101031.88;7283410;19;153651;-53
2022/05/25 11:07:24;;;;;;;;;;;;;;;20.85;49.64;101047.28;7290123;19;151864;-53
2022/05/25 11:09:54;;;;;;;;;;;;;;;20.86;49.61;101027.31;7287590;19;153134;-54
2022/05/25 11:12:25;;;;;;;;;;;;;;;20.88;49.67;101020.56;7289097;19;153386;-54
2022/05/25 11:14:53;;;;;;;;;;;;;;;20.89;49.33;101020.28;7289594;19;152260;-54
2022/05/25 11:17:21;;;;;;;;;;;;;;;20.91;49.35;101026.41;7296220;19;153046;-53
2022/05/25 11:19:52;;;;;;;;;;;;;;;20.90;49.01;101023.88;7289594;19;151656;-54
2022/05/25 11:22:22;;;;;;;;;;;;;;;20.88;48.77;101014.94;7288076;19;152795;-53
2022/05/25 11:24:55;;;;;;;;;;;;;;;20.85;49.03;101014.41;7288407;19;153079;-54
2022/05/25 11:27:29;;;;;;;;;;;;;;;20.90;49.09;101019.09;7284513;19;151771;-54
2022/05/25 11:30:02;;;;;;;;;;;;;;;20.85;49.11;101019.19;7290302;19;153300;-54
2022/05/25 11:32:41;;;;;;;;;;;;;;;20.74;48.89;101024.19;7287712;19;153578;-54
2022/05/25 11:35:11;;;;;;;;;;;;;;;20.78;48.93;101011.19;7288450;19;151925;-54
2022/05/25 11:37:41;;;;;;;;;;;;;;;20.70;49.05;101017.53;7286985;19;152247;-54
2022/05/25 11:40:15;;;;;;;;;;;;;;;20.77;48.93;101014.28;7294858;19;154663;-53
2022/05/25 11:42:45;;;;;;;;;;;;;;;20.79;48.91;101014.84;7288851;19;153019;-54
2022/05/25 11:45:16;;;;;;;;;;;;;;;20.77;48.78;101009.50;7288678;19;153415;-54
2022/05/25 11:47:46;;;;;;;;;;;;;;;20.73;49.18;101008.47;7287029;19;152181;-53
2022/05/25 11:50:13;;;;;;;;;;;;;;;20.72;48.82;101003.16;7290050;19;152252;-54
2022/05/25 11:52:42;;;;;;;;;;;;;;;20.70;49.44;101016.69;7287775;19;153585;-53
2022/05/25 11:55:24;;;;;;;;;;;;;;;20.73;49.12;101002.84;7288786;19;152950;-54
2022/05/25 11:58:00;;;;;;;;;;;;;;;20.71;49.30;101001.50;7288840;19;152500;-54
2022/05/25 12:00:33;;;;;;;;;;;;;;;20.64;49.46;101007.50;7286211;19;153527;-53
2022/05/25 12:03:03;;;;;;;;;;;;;;;20.59;49.54;100996.38;7294721;19;151860;-53
2022/05/25 12:05:31;;;;;;;;;;;;;;;20.61;49.37;100999.72;7287519;19;154227;-54
2022/05/25 12:08:08;;;;;;;;;;;;;;;20.52;49.79;101001.56;7288380;19;151728;-54
2022/05/25 12:10:43;;;;;;;;;;;;;;;20.57;49.25;100997.81;7286797;19;152427;-53
2022/05/25 12:13:21;;;;;;;;;;;;;;;20.55;49.48;101006.56;7286753;19;153847;-54
2022/05/25 12:15:54;;;;;;;;;;;;;;;20.53;49.50;100997.63;7286093;19;152019;-53
2022/05/25 12:18:21;;;;;;;;;;;;;;;20.57;49.25;100990.25;7288426;19;152957;-54
2022/05/25 12:20:53;;;;;;;;;;;;;;;20.54;49.57;101006.84;7283916;19;153344;-54
2022/05/25 12:23:23;;;;;;;;;;;;;;;20.51;49.61;100997.06;7285491;19;151936;-54
2022/05/25 12:25:59;;;;;;;;;;;;;;;20.52;49.72;101001.56;7294631;19;152903;-54
2022/05/25 12:28:31;;;;;;;;;;;;;;;20.47;49.64;101004.44;7287721;19;151746;-54
2022/05/25 12:31:01;;;;;;;;;;;;;;;20.46;49.93;101008.38;7288827;19;154417;-54
2022/05/25 12:33:28;;;;;;;;;;;;;;;20.51;49.50;101011.13;7283709;19;154209;-54
2022/05/25 12:35:56;;;;;;;;;;;;;;;20.42;49.74;101010.97;7286782;19;151868;-54
2022/05/25 12:38:27;;;;;;;;;;;;;;;20.48;49.99;101010.91;7286071;19;152620;-53
2022/05/25 12:40:53;;;;;;;;;;;;;;;20.52;49.71;101001.56;7287914;19;153455;-54
2022/05/25 12:43:23;;;;;;;;;;;;;;;20.41;50.02;101011.28;7285737;19;152358;-54
2022/05/25 12:48:31;;;;;;;;;;;;;;;20.43;49.70;101014.63;7292211;19;153640;-54
2022/05/25 12:51:06;;;;;;;;;;;;;;;20.47;49.67;101003.63;7285189;19;152585;-53
2022/05/25 12:53:32;;;;;;;;;;;;;;;20.38;49.90;101004.31;7285742;19;153774;-53
2022/05/25 12:56:05;;;;;;;;;;;;;;;20.45;49.88;101022.72;7288163;19;151879;-54
2022/05/25 12:58:32;;;;;;;;;;;;;;;20.48;49.52;101006.13;7287482;19;152028;-54